createdAt,value
2023-12-09T00:01:43.581Z,97935.44
2023-12-09T00:04:09.803Z,97935.44
2023-12-09T00:06:36.093Z,97932.81
2023-12-09T00:09:02.341Z,97927.53
2023-12-09T00:11:28.512Z,97931.81
2023-12-09T00:13:54.646Z,97932.63
2023-12-09T00:16:20.768Z,97928.38
2023-12-09T00:18:47.072Z,97932.63
2023-12-09T00:21:13.328Z,97941.38
2023-12-09T00:23:47.310Z,97938.75
2023-12-09T00:26:14.704Z,97947.63
2023-12-09T00:28:40.982Z,97954.56
2023-12-09T00:31:07.119Z,97951.09
2023-12-09T00:33:33.834Z,97951.91
2023-12-09T00:36:00.111Z,97957.19
2023-12-09T00:38:26.284Z,97957.19
2023-12-09T00:40:52.466Z,97957.19
2023-12-09T00:43:18.604Z,97958.81
2023-12-09T00:45:44.763Z,97951.72
2023-12-09T00:48:11.036Z,97966.72
2023-12-09T00:50:37.229Z,97950.09
2023-12-09T00:53:03.355Z,97950.91
2023-12-09T00:55:29.530Z,97949.28
2023-12-09T00:57:55.677Z,97943.00
2023-12-09T01:00:21.908Z,97945.63
2023-12-09T01:02:48.249Z,97935.91
2023-12-09T01:05:14.485Z,97944.81
2023-12-09T01:07:40.647Z,97948.28
2023-12-09T01:10:06.829Z,97961.44
2023-12-09T01:12:33.091Z,97963.09
2023-12-09T01:14:59.333Z,97964.09
2023-12-09T01:17:25.511Z,97956.19
2023-12-09T01:19:51.751Z,97965.75
2023-12-09T01:22:17.930Z,97958.63
2023-12-09T01:24:44.080Z,97963.09
2023-12-09T01:27:10.278Z,97968.38
2023-12-09T01:29:36.485Z,97969.34
2023-12-09T01:32:02.648Z,97970.16
2023-12-09T01:34:28.847Z,97973.66
2023-12-09T01:36:55.007Z,97967.34
2023-12-09T01:39:21.687Z,97968.38
2023-12-09T01:41:47.869Z,97968.38
2023-12-09T01:44:14.016Z,97963.91
2023-12-09T01:46:40.189Z,97963.91
2023-12-09T01:49:06.456Z,97956.81
2023-12-09T01:51:32.714Z,97951.72
2023-12-09T01:53:58.948Z,97954.19
2023-12-09T01:56:25.119Z,97954.19
2023-12-09T01:58:51.257Z,97956.81
2023-12-09T02:01:17.467Z,97938.38
2023-12-09T02:03:43.814Z,97943.63
2023-12-09T02:06:10.068Z,97943.63
2023-12-09T02:08:36.695Z,97945.47
2023-12-09T02:11:02.830Z,97939.38
2023-12-09T02:13:28.963Z,97941.16
2023-12-09T02:15:55.134Z,97936.75
2023-12-09T02:18:21.438Z,97942.00
2023-12-09T02:20:47.638Z,97941.00
2023-12-09T02:23:13.818Z,97945.47
2023-12-09T02:25:40.014Z,97932.28
2023-12-09T02:28:06.163Z,97927.81
2023-12-09T02:30:32.411Z,97933.91
2023-12-09T02:32:58.653Z,97944.44
2023-12-09T02:35:24.866Z,97925.19
2023-12-09T02:37:51.032Z,97922.53
2023-12-09T02:40:17.193Z,97921.75
2023-12-09T02:42:43.364Z,97917.28
2023-12-09T02:45:09.727Z,97928.63
2023-12-09T02:47:35.966Z,97925.19
2023-12-09T02:50:02.149Z,97917.28
2023-12-09T02:52:28.443Z,97922.53
2023-12-09T02:54:54.785Z,97910.19
2023-12-09T02:57:20.934Z,97899.63
2023-12-09T02:59:47.117Z,97893.56
2023-12-09T03:02:13.245Z,97890.91
2023-12-09T03:04:39.416Z,97890.91
2023-12-09T03:07:05.572Z,97885.66
2023-12-09T03:09:31.918Z,97870.84
2023-12-09T03:11:58.177Z,97876.94
2023-12-09T03:14:24.378Z,97875.09
2023-12-09T03:16:50.532Z,97876.94
2023-12-09T03:19:16.738Z,97864.56
2023-12-09T03:21:42.952Z,97876.13
2023-12-09T03:24:09.148Z,97875.09
2023-12-09T03:26:35.337Z,97886.47
2023-12-09T03:29:01.481Z,97885.66
2023-12-09T03:31:27.625Z,97875.09
2023-12-09T03:33:53.840Z,97864.56
2023-12-09T03:36:20.195Z,97876.75
2023-12-09T03:38:46.350Z,97864.56
2023-12-09T03:41:12.496Z,97858.66
2023-12-09T03:43:39.185Z,97859.28
2023-12-09T03:46:05.401Z,97860.09
2023-12-09T03:48:31.779Z,97848.75
2023-12-09T03:50:58.025Z,97843.47
2023-12-09T03:53:24.174Z,97840.84
2023-12-09T03:55:50.332Z,97843.47
2023-12-09T03:58:16.495Z,97843.47
2023-12-09T04:00:42.745Z,97840.84
2023-12-09T04:03:08.994Z,97832.13
2023-12-09T04:05:35.235Z,97831.31
2023-12-09T04:08:01.389Z,97829.31
2023-12-09T04:10:27.590Z,97826.84
2023-12-09T04:12:54.222Z,97819.75
2023-12-09T04:15:20.510Z,97840.66
2023-12-09T04:17:46.702Z,97839.00
2023-12-09T04:20:12.917Z,97846.09
2023-12-09T04:22:39.083Z,97839.00
2023-12-09T04:25:05.225Z,97837.38
2023-12-09T04:27:31.489Z,97847.94
2023-12-09T04:29:57.661Z,97846.28
2023-12-09T04:32:23.924Z,97852.41
2023-12-09T04:34:50.154Z,97848.91
2023-12-09T04:37:16.291Z,97843.66
2023-12-09T04:39:42.416Z,97846.28
2023-12-09T04:42:08.751Z,97845.47
2023-12-09T04:44:34.904Z,97846.28
2023-12-09T04:47:01.600Z,97841.00
2023-12-09T04:49:28.594Z,97852.41
2023-12-09T04:51:54.772Z,97846.28
2023-12-09T04:54:20.984Z,97834.13
2023-12-09T04:56:47.195Z,97835.75
2023-12-09T04:59:13.348Z,97826.22
2023-12-09T05:01:39.487Z,97836.75
2023-12-09T05:04:05.844Z,97825.41
2023-12-09T05:06:32.102Z,97828.03
2023-12-09T05:08:58.371Z,97812.22
2023-12-09T05:11:24.627Z,97814.88
2023-12-09T05:13:50.763Z,97808.56
2023-12-09T05:16:16.903Z,97813.84
2023-12-09T05:18:43.188Z,97806.97
2023-12-09T05:21:09.453Z,97813.84
2023-12-09T05:23:35.633Z,97818.31
2023-12-09T05:26:01.785Z,97811.22
2023-12-09T05:28:27.941Z,97806.97
2023-12-09T05:30:54.079Z,97804.31
2023-12-09T05:33:20.354Z,97808.56
2023-12-09T05:35:46.580Z,97809.59
2023-12-09T05:38:12.822Z,97819.13
2023-12-09T05:40:38.979Z,97807.78
2023-12-09T05:43:05.116Z,97815.69
2023-12-09T05:45:31.590Z,97802.50
2023-12-09T05:47:57.983Z,97810.41
2023-12-09T05:50:24.244Z,97802.50
2023-12-09T05:52:50.410Z,97806.97
2023-12-09T05:55:16.547Z,97799.06
2023-12-09T05:57:42.734Z,97807.78
2023-12-09T06:00:08.903Z,97809.59
2023-12-09T06:02:35.269Z,97803.31
2023-12-09T06:05:01.439Z,97807.59
2023-12-09T06:07:27.588Z,97791.16
2023-12-09T06:09:54.024Z,97799.06
2023-12-09T06:12:20.322Z,97799.88
2023-12-09T06:14:46.489Z,97798.03
2023-12-09T06:17:12.649Z,97792.94
2023-12-09T06:19:38.820Z,97803.47
2023-12-09T06:22:04.998Z,97789.50
2023-12-09T06:24:31.168Z,97793.78
2023-12-09T06:26:57.350Z,97790.31
2023-12-09T06:29:23.488Z,97784.22
2023-12-09T06:31:49.660Z,97781.59
2023-12-09T06:34:15.902Z,97771.06
2023-12-09T06:36:42.121Z,97767.59
2023-12-09T06:39:08.337Z,97762.34
2023-12-09T06:41:34.488Z,97765.78
2023-12-09T06:44:00.627Z,97767.44
2023-12-09T06:46:26.885Z,97763.16
2023-12-09T06:48:53.145Z,97762.34
2023-12-09T06:51:19.496Z,97752.59
2023-12-09T06:53:46.277Z,97763.16
2023-12-09T06:58:56.049Z,97747.50
2023-12-09T07:01:22.299Z,97750.94
2023-12-09T07:03:48.577Z,97744.88
2023-12-09T07:06:14.818Z,97736.16
2023-12-09T07:08:41.225Z,97732.50
2023-12-09T07:11:07.492Z,97739.59
2023-12-09T07:13:44.316Z,97743.03
2023-12-09T07:16:13.319Z,97735.13
2023-12-09T07:18:39.609Z,97736.16
2023-12-09T07:21:06.286Z,97729.88
2023-12-09T07:23:32.553Z,97729.06
2023-12-09T07:25:59.193Z,97723.78
2023-12-09T07:28:25.430Z,97728.25
2023-12-09T07:30:52.547Z,97733.53
2023-12-09T07:33:19.472Z,97724.81
2023-12-09T07:35:45.822Z,97716.06
2023-12-09T07:38:12.468Z,97717.91
2023-12-09T07:40:39.542Z,97709.19
2023-12-09T07:43:05.983Z,97704.53
2023-12-09T07:45:32.695Z,97705.53
2023-12-09T07:48:03.005Z,97694.97
2023-12-09T07:50:29.761Z,97692.34
2023-12-09T07:52:55.920Z,97696.81
2023-12-09T07:55:24.633Z,97692.34
2023-12-09T07:57:50.903Z,97685.28
2023-12-09T08:00:26.881Z,97678.38
2023-12-09T08:02:53.117Z,97675.72
2023-12-09T08:05:19.752Z,97665.19
2023-12-09T08:07:46.180Z,97660.09
2023-12-09T08:10:12.374Z,97650.38
2023-12-09T08:12:38.582Z,97653.84
2023-12-09T08:15:04.829Z,97668.63
2023-12-09T08:17:31.142Z,97645.94
2023-12-09T08:19:57.453Z,97645.94
2023-12-09T08:22:23.699Z,97641.66
2023-12-09T08:24:49.971Z,97630.94
2023-12-09T08:27:16.170Z,97628.47
2023-12-09T08:29:42.336Z,97638.22
2023-12-09T08:32:08.520Z,97630.31
2023-12-09T08:34:34.774Z,97625.84
2023-12-09T08:37:01.177Z,97616.31
2023-12-09T08:39:27.460Z,97607.38
2023-12-09T08:41:53.672Z,97604.75
2023-12-09T08:44:19.852Z,97603.94
2023-12-09T08:46:46.069Z,97597.88
2023-12-09T08:49:14.904Z,97600.50
2023-12-09T08:51:41.517Z,97594.41
2023-12-09T08:54:09.969Z,97604.94
2023-12-09T08:56:36.850Z,97592.78
2023-12-09T08:59:05.057Z,97604.13
2023-12-09T09:01:34.114Z,97607.56
2023-12-09T09:04:00.393Z,97598.84
2023-12-09T09:06:26.776Z,97605.78
2023-12-09T09:08:53.029Z,97617.31
2023-12-09T09:11:19.237Z,97607.56
2023-12-09T09:13:45.424Z,97595.41
2023-12-09T09:16:11.636Z,97607.75
2023-12-09T09:18:37.985Z,97597.22
2023-12-09T09:21:04.255Z,97605.13
2023-12-09T09:23:30.421Z,97602.47
2023-12-09T09:25:56.545Z,97594.59
2023-12-09T09:28:22.690Z,97605.13
2023-12-09T09:30:48.903Z,97585.88
2023-12-09T09:33:15.202Z,97590.34
2023-12-09T09:35:41.426Z,97569.25
2023-12-09T09:38:07.595Z,97574.53
2023-12-09T09:40:33.745Z,97578.97
2023-12-09T09:42:59.879Z,97576.13
2023-12-09T09:45:28.604Z,97572.69
2023-12-09T09:47:58.075Z,97561.34
2023-12-09T09:50:24.333Z,97553.44
2023-12-09T09:52:50.505Z,97541.88
2023-12-09T09:55:16.637Z,97542.91
2023-12-09T09:57:42.827Z,97532.38
2023-12-09T10:00:09.061Z,97526.28
2023-12-09T10:02:35.217Z,97524.47
2023-12-09T10:05:01.407Z,97508.66
2023-12-09T10:07:27.725Z,97503.38
2023-12-09T10:09:53.951Z,97495.47
2023-12-09T10:12:20.142Z,97499.09
2023-12-09T10:14:48.177Z,97485.91
2023-12-09T10:17:15.828Z,97474.38
2023-12-09T10:19:42.095Z,97472.75
2023-12-09T10:22:08.626Z,97450.88
2023-12-09T10:24:34.822Z,97451.66
2023-12-09T10:29:47.783Z,97452.50
2023-12-09T10:32:14.746Z,97449.88
2023-12-09T10:34:41.297Z,97425.31
2023-12-09T10:37:11.094Z,97420.06
2023-12-09T10:39:38.139Z,97415.81
2023-12-09T10:42:04.369Z,97417.59
2023-12-09T10:44:30.563Z,97421.06
2023-12-09T10:46:56.691Z,97414.78
2023-12-09T10:49:22.956Z,97410.53
2023-12-09T10:51:49.383Z,97410.34
2023-12-09T10:54:15.614Z,97400.00
2023-12-09T10:56:41.864Z,97389.47
2023-12-09T10:59:08.277Z,97391.25
2023-12-09T11:01:34.552Z,97379.91
2023-12-09T11:04:00.901Z,97377.09
2023-12-09T11:06:27.685Z,97362.28
2023-12-09T11:08:53.861Z,97349.94
2023-12-09T11:11:20.062Z,97349.94
2023-12-09T11:13:46.249Z,97334.13
2023-12-09T11:16:12.447Z,97330.66
2023-12-09T11:18:38.867Z,97327.22
2023-12-09T11:21:05.244Z,97313.03
2023-12-09T11:23:31.471Z,97299.88
2023-12-09T11:25:57.690Z,97296.41
2023-12-09T11:28:25.617Z,97296.41
2023-12-09T11:30:51.900Z,97281.44
2023-12-09T11:33:18.198Z,97278.78
2023-12-09T11:35:44.497Z,97280.59
2023-12-09T11:38:10.676Z,97265.63
2023-12-09T11:40:36.854Z,97247.97
2023-12-09T11:43:03.040Z,97257.72
2023-12-09T11:45:30.661Z,97244.53
2023-12-09T11:47:58.219Z,97231.38
2023-12-09T11:50:24.671Z,97215.56
2023-12-09T11:52:50.873Z,97212.09
2023-12-09T11:55:17.057Z,97208.66
2023-12-09T11:57:43.361Z,97190.22
2023-12-09T12:00:09.620Z,97179.66
2023-12-09T12:02:35.873Z,97160.44
2023-12-09T12:05:02.193Z,97159.41
2023-12-09T12:07:28.439Z,97145.41
2023-12-09T12:09:54.616Z,97144.41
2023-12-09T12:12:20.840Z,97127.78
2023-12-09T12:14:47.012Z,97127.78
2023-12-09T12:17:16.469Z,97121.72
2023-12-09T12:19:43.466Z,97119.06
2023-12-09T12:22:09.758Z,97110.38
2023-12-09T12:24:36.034Z,97111.16
2023-12-09T12:27:02.277Z,97105.91
2023-12-09T12:29:28.491Z,97100.63
2023-12-09T12:31:54.652Z,97081.38
2023-12-09T12:34:21.319Z,97085.63
2023-12-09T12:36:47.809Z,97076.13
2023-12-09T12:39:14.151Z,97062.94
2023-12-09T12:41:40.571Z,97069.81
2023-12-09T12:44:06.855Z,97065.56
2023-12-09T12:46:33.152Z,97048.75
2023-12-09T12:48:59.552Z,97042.66
2023-12-09T12:51:26.946Z,97033.16
2023-12-09T12:53:53.229Z,97026.88
2023-12-09T12:56:19.375Z,97017.13
2023-12-09T12:58:45.515Z,97007.41
2023-12-09T13:01:14.527Z,96997.88
2023-12-09T13:03:40.948Z,96986.34
2023-12-09T13:06:07.273Z,96970.53
2023-12-09T13:08:33.446Z,96942.56
2023-12-09T13:11:08.117Z,96935.69
2023-12-09T13:13:34.285Z,96917.25
2023-12-09T13:16:00.963Z,96914.59
2023-12-09T13:18:27.392Z,96911.97
2023-12-09T13:20:53.684Z,96906.72
2023-12-09T13:23:24.659Z,96887.44
2023-12-09T13:25:50.827Z,96866.34
2023-12-09T13:28:17.015Z,96861.94
2023-12-09T13:30:43.751Z,96867.19
2023-12-09T13:33:10.043Z,96856.66
2023-12-09T13:35:36.227Z,96840.84
2023-12-09T13:38:03.710Z,96846.13
2023-12-09T13:40:30.118Z,96811.03
2023-12-09T13:42:56.493Z,96811.88
2023-12-09T13:45:22.789Z,96809.22
2023-12-09T13:47:49.287Z,96803.97
2023-12-09T13:50:15.726Z,96787.34
2023-12-09T13:52:41.937Z,96798.69
2023-12-09T13:55:08.146Z,96777.63
2023-12-09T13:57:34.311Z,96767.09
2023-12-09T14:00:00.603Z,96757.56
2023-12-09T14:02:35.516Z,96749.66
2023-12-09T14:05:02.696Z,96739.13
2023-12-09T14:07:28.864Z,96724.09
2023-12-09T14:09:55.064Z,96728.56
2023-12-09T14:12:21.314Z,96686.44
2023-12-09T14:14:47.476Z,96690.06
2023-12-09T14:17:13.732Z,96689.25
2023-12-09T14:19:40.638Z,96695.34
2023-12-09T14:22:06.881Z,96684.00
2023-12-09T14:24:33.065Z,96687.44
2023-12-09T14:26:59.261Z,96689.25
2023-12-09T14:29:25.392Z,96668.19
2023-12-09T14:31:51.551Z,96662.91
2023-12-09T14:34:17.964Z,96658.44
2023-12-09T14:36:44.283Z,96662.13
2023-12-09T14:39:10.487Z,96642.66
2023-12-09T14:41:36.688Z,96654.22
2023-12-09T14:44:08.366Z,96643.69
2023-12-09T14:46:35.430Z,96616.53
2023-12-09T14:49:01.817Z,96625.25
2023-12-09T14:51:39.934Z,96617.34
2023-12-09T14:54:10.007Z,96608.66
2023-12-09T14:56:36.182Z,96606.81
2023-12-09T14:59:02.339Z,96588.38
2023-12-09T15:01:28.532Z,96592.84
2023-12-09T15:03:54.787Z,96571.75
2023-12-09T15:06:21.050Z,96576.19
2023-12-09T15:08:47.228Z,96581.47
2023-12-09T15:11:13.370Z,96544.59
2023-12-09T15:13:39.521Z,96543.78
2023-12-09T15:16:05.850Z,96522.72
2023-12-09T15:18:32.302Z,96531.44
2023-12-09T15:20:58.530Z,96511.38
2023-12-09T15:23:24.695Z,96499.03
2023-12-09T15:25:50.845Z,96484.22
2023-12-09T15:28:16.992Z,96459.72
2023-12-09T15:30:43.203Z,96451.81
2023-12-09T15:33:09.547Z,96451.03
2023-12-09T15:35:35.748Z,96451.03
2023-12-09T15:38:02.452Z,96431.78
2023-12-09T15:40:28.613Z,96410.72
2023-12-09T15:42:54.781Z,96412.53
2023-12-09T15:45:20.971Z,96405.44
2023-12-09T15:47:47.205Z,96383.56
2023-12-09T15:50:13.435Z,96354.59
2023-12-09T15:52:39.620Z,96359.06
2023-12-09T15:55:05.767Z,96332.72
2023-12-09T15:57:31.977Z,96321.38
2023-12-09T15:59:58.168Z,96320.59
2023-12-09T16:02:24.483Z,96287.16
2023-12-09T16:04:50.735Z,96288.97
2023-12-09T16:07:17.459Z,96275.00
2023-12-09T16:09:51.672Z,96253.91
2023-12-09T16:12:19.028Z,96241.78
2023-12-09T16:14:45.202Z,96223.34
2023-12-09T16:17:11.347Z,96221.72
2023-12-09T16:19:37.637Z,96210.41
2023-12-09T16:22:03.902Z,96213.03
2023-12-09T16:24:30.127Z,96206.97
2023-12-09T16:26:56.393Z,96223.56
2023-12-09T16:29:22.539Z,96214.03
2023-12-09T16:31:48.710Z,96207.97
2023-12-09T16:34:15.107Z,96206.38
2023-12-09T16:36:41.387Z,96205.56
2023-12-09T16:39:07.618Z,96190.56
2023-12-09T16:41:34.100Z,96213.47
2023-12-09T16:44:00.250Z,96196.88
2023-12-09T16:46:26.594Z,96196.06
2023-12-09T16:48:52.882Z,96199.50
2023-12-09T16:51:19.077Z,96194.25
2023-12-09T16:53:45.228Z,96184.50
2023-12-09T16:56:11.387Z,96161.59
2023-12-09T16:58:37.548Z,96161.59
2023-12-09T17:01:03.767Z,96150.28
2023-12-09T17:03:30.288Z,96153.69
2023-12-09T17:05:56.521Z,96140.31
2023-12-09T17:08:22.699Z,96130.59
2023-12-09T17:10:48.909Z,96124.50
2023-12-09T17:13:15.058Z,96108.72
2023-12-09T17:15:43.048Z,96123.72
2023-12-09T17:18:09.372Z,96103.44
2023-12-09T17:20:35.638Z,96076.31
2023-12-09T17:23:01.795Z,96092.34
2023-12-09T17:25:27.971Z,96100.25
2023-12-09T17:27:54.125Z,96089.69
2023-12-09T17:30:20.299Z,96093.38
2023-12-09T17:32:46.486Z,96114.44
2023-12-09T17:35:12.660Z,96127.63
2023-12-09T17:37:38.804Z,96178.44
2023-12-09T17:40:04.971Z,96210.03
2023-12-09T17:42:31.388Z,96207.19
2023-12-09T17:44:57.881Z,96126.56
2023-12-09T17:47:24.086Z,96072.31
2023-12-09T17:49:50.257Z,96030.97
2023-12-09T17:52:16.448Z,96051.25
2023-12-09T17:54:42.753Z,96098.66
2023-12-09T17:57:08.974Z,96124.16
2023-12-09T17:59:35.138Z,96156.56
2023-12-09T18:02:01.293Z,96145.22
2023-12-09T18:04:27.661Z,96151.31
2023-12-09T18:06:53.870Z,96151.31
2023-12-09T18:09:20.079Z,96132.88
2023-12-09T18:11:46.488Z,96119.72
2023-12-09T18:14:12.653Z,96109.19
2023-12-09T18:16:39.163Z,96114.44
2023-12-09T18:19:05.838Z,96105.50
2023-12-09T18:21:32.458Z,96119.72
2023-12-09T18:23:58.753Z,96119.72
2023-12-09T18:26:24.901Z,96134.69
2023-12-09T18:28:51.110Z,96125.78
2023-12-09T18:31:17.519Z,96125.78
2023-12-09T18:33:43.766Z,96140.78
2023-12-09T18:36:10.097Z,96133.66
2023-12-09T18:38:36.585Z,96123.13
2023-12-09T18:41:02.714Z,96096.00
2023-12-09T18:43:31.070Z,96088.13
2023-12-09T18:45:57.917Z,96098.66
2023-12-09T18:48:24.205Z,96104.72
2023-12-09T18:50:50.433Z,96124.97
2023-12-09T18:53:16.719Z,96147.63
2023-12-09T18:55:42.867Z,96167.13
2023-12-09T18:58:09.015Z,96153.94
2023-12-09T19:00:35.234Z,96131.03
2023-12-09T19:03:01.423Z,96150.28
2023-12-09T19:05:27.676Z,96147.63
2023-12-09T19:07:53.852Z,96151.06
2023-12-09T19:10:20.131Z,96150.06
2023-12-09T19:12:46.364Z,96152.91
2023-12-09T19:15:12.552Z,96163.44
2023-12-09T19:17:38.872Z,96153.69
2023-12-09T19:20:05.219Z,96143.16
2023-12-09T19:22:31.762Z,96158.97
2023-12-09T19:24:57.921Z,96146.41
2023-12-09T19:27:24.104Z,96145.59
2023-12-09T19:29:50.346Z,96152.69
2023-12-09T19:32:16.495Z,96150.28
2023-12-09T19:34:45.123Z,96148.22
2023-12-09T19:37:11.328Z,96153.69
2023-12-09T19:39:37.545Z,96156.13
2023-12-09T19:42:07.713Z,96170.31
2023-12-09T19:44:34.578Z,96147.41
2023-12-09T19:47:00.723Z,96153.47
2023-12-09T19:49:27.034Z,96150.84
2023-12-09T19:51:53.415Z,96153.25
2023-12-09T19:54:19.699Z,96146.41
2023-12-09T19:56:46.104Z,96139.31
2023-12-09T19:59:12.249Z,96151.69
2023-12-09T20:01:38.466Z,96155.09
2023-12-09T20:04:04.707Z,96163.00
2023-12-09T20:06:31.386Z,96152.47
2023-12-09T20:08:57.769Z,96168.28
2023-12-09T20:11:23.924Z,96164.84
2023-12-09T20:13:50.368Z,96170.09
2023-12-09T20:16:16.506Z,96171.91
2023-12-09T20:18:42.717Z,96178.81
2023-12-09T20:21:09.121Z,96171.91
2023-12-09T20:23:35.385Z,96180.63
2023-12-09T20:26:01.596Z,96169.84
2023-12-09T20:28:27.753Z,96180.38
2023-12-09T20:30:53.996Z,96185.66
2023-12-09T20:33:20.297Z,96195.19
2023-12-09T20:35:46.548Z,96200.44
2023-12-09T20:38:12.681Z,96195.97
2023-12-09T20:40:38.882Z,96199.66
2023-12-09T20:43:05.666Z,96204.91
2023-12-09T20:45:34.296Z,96212.00
2023-12-09T20:48:08.235Z,96223.34
2023-12-09T20:50:35.840Z,96238.34
2023-12-09T20:53:03.888Z,96232.25
2023-12-09T20:55:30.172Z,96245.44
2023-12-09T20:57:56.443Z,96266.50
2023-12-09T21:00:22.683Z,96268.34
2023-12-09T21:02:48.874Z,96294.69
2023-12-09T21:05:15.169Z,96299.16
2023-12-09T21:07:41.361Z,96308.06
2023-12-09T21:10:07.549Z,96310.69
2023-12-09T21:12:34.070Z,96318.00
2023-12-09T21:15:00.424Z,96330.13
2023-12-09T21:17:26.657Z,96325.09
2023-12-09T21:19:53.746Z,96339.88
2023-12-09T21:22:20.080Z,96349.59
2023-12-09T21:24:46.299Z,96353.03
2023-12-09T21:27:12.558Z,96354.88
2023-12-09T21:29:38.885Z,96354.06
2023-12-09T21:32:05.160Z,96354.06
2023-12-09T21:34:32.936Z,96361.16
2023-12-09T21:36:59.123Z,96363.56
2023-12-09T21:39:25.288Z,96364.59
2023-12-09T21:41:51.480Z,96361.97
2023-12-09T21:44:17.653Z,96367.25
2023-12-09T21:46:43.808Z,96370.88
2023-12-09T21:49:10.114Z,96380.63
2023-12-09T21:51:36.353Z,96381.41
2023-12-09T21:54:02.512Z,96391.94
2023-12-09T21:56:28.954Z,96395.38
2023-12-09T21:58:55.086Z,96410.38
2023-12-09T22:01:21.281Z,96423.56
2023-12-09T22:03:47.539Z,96422.75
2023-12-09T22:06:13.979Z,96422.75
2023-12-09T22:08:40.259Z,96439.34
2023-12-09T22:11:06.505Z,96439.34
2023-12-09T22:13:32.680Z,96447.25
2023-12-09T22:15:58.812Z,96450.69
2023-12-09T22:18:25.096Z,96472.59
2023-12-09T22:20:51.341Z,96483.13
2023-12-09T22:23:17.488Z,96485.75
2023-12-09T22:25:43.664Z,96483.13
2023-12-09T22:28:09.804Z,96493.66
2023-12-09T22:30:36.021Z,96501.56
2023-12-09T22:33:02.315Z,96502.34
2023-12-09T22:35:28.535Z,96507.63
2023-12-09T22:37:54.682Z,96511.25
2023-12-09T22:40:20.947Z,96509.44
2023-12-09T22:42:47.261Z,96524.41
2023-12-09T22:45:13.471Z,96523.41
2023-12-09T22:47:39.925Z,96529.69
2023-12-09T22:50:06.223Z,96538.41
2023-12-09T22:52:32.401Z,96545.50
2023-12-09T22:54:58.569Z,96556.03
2023-12-09T22:57:24.767Z,96575.28
2023-12-09T22:59:50.916Z,96588.47
2023-12-09T23:02:17.247Z,96599.78
2023-12-09T23:04:43.427Z,96604.25
2023-12-09T23:07:09.584Z,96612.97
2023-12-09T23:09:35.811Z,96610.31
2023-12-09T23:12:02.006Z,96618.22
2023-12-09T23:14:28.149Z,96633.00
2023-12-09T23:16:54.315Z,96636.66
2023-12-09T23:19:20.574Z,96634.81
2023-12-09T23:21:46.814Z,96647.19
2023-12-09T23:24:13.044Z,96657.72
2023-12-09T23:26:39.207Z,96636.66
2023-12-09T23:29:05.344Z,96658.53
2023-12-09T23:31:39.139Z,96650.63
2023-12-09T23:34:07.670Z,96650.63
2023-12-09T23:36:33.917Z,96659.56
2023-12-09T23:39:00.069Z,96653.25
2023-12-09T23:41:26.223Z,96666.44
2023-12-09T23:43:52.381Z,96669.06
2023-12-09T23:46:18.511Z,96675.13
2023-12-09T23:48:44.801Z,96685.91
2023-12-09T23:51:11.036Z,96684.88
2023-12-09T23:53:37.213Z,96695.41
2023-12-09T23:56:03.395Z,96689.94
2023-12-09T23:58:29.595Z,96692.75
